Time;durP1;ratioP1;P1;durP2;ratioP2;P2;SDS_P1;SDS_P2;PMS_P1;PMS_P2;Temp;Humidity;BMP_temperature;BMP_pressure;BME280_temperature;BME280_humidity;BME280_pressure;Samples;Min_cycle;Max_cycle;Signal;HPM_P1;HPM_P2
2022/12/31 00:01:49;;;;;;;13.10;1.83;;;11.40;99.90;;;;;;5030966;28;20171;-58
2022/12/31 00:04:15;;;;;;;16.50;1.80;;;11.40;99.90;;;;;;5014137;28;20551;-58
2022/12/31 00:06:41;;;;;;;11.63;1.47;;;11.50;99.90;;;;;;5014372;28;20179;-58
2022/12/31 00:09:07;;;;;;;11.87;1.73;;;11.60;99.90;;;;;;5014310;28;20225;-57
2022/12/31 00:11:35;;;;;;;11.60;1.90;;;11.50;99.90;;;;;;5014229;28;20178;-58
2022/12/31 00:14:01;;;;;;;19.37;2.43;;;11.60;99.90;;;;;;5017238;28;20224;-57
2022/12/31 00:16:32;;;;;;;11.87;1.37;;;11.50;99.90;;;;;;5033873;28;20260;-57
2022/12/31 00:18:59;;;;;;;15.73;1.77;;;11.60;99.90;;;;;;5033859;28;20523;-57
2022/12/31 00:21:29;;;;;;;11.13;1.33;;;11.60;99.90;;;;;;5033723;28;20178;-57
2022/12/31 00:23:55;;;;;;;13.10;2.27;;;11.60;99.90;;;;;;5033615;28;20213;-57
2022/12/31 00:26:24;;;;;;;19.40;2.30;;;11.60;99.90;;;;;;5033659;28;20178;-57
2022/12/31 00:28:52;;;;;;;17.20;2.67;;;11.60;99.90;;;;;;5033584;28;20166;-57
2022/12/31 00:31:20;;;;;;;18.30;2.10;;;11.60;99.90;;;;;;5033760;28;20184;-58
2022/12/31 00:33:46;;;;;;;14.50;2.17;;;11.60;99.90;;;;;;5033715;28;20177;-58
2022/12/31 00:36:21;;;;;;;15.43;1.97;;;11.60;99.90;;;;;;5024577;28;20577;-58
2022/12/31 00:38:49;;;;;;;19.07;2.90;;;11.60;99.90;;;;;;5033084;28;20178;-58
2022/12/31 00:41:16;;;;;;;14.93;1.97;;;11.60;99.90;;;;;;5033186;28;20180;-58
2022/12/31 00:43:42;;;;;;;15.77;2.13;;;11.50;99.90;;;;;;5032578;28;20265;-57
2022/12/31 00:46:09;;;;;;;18.97;2.93;;;11.60;99.90;;;;;;5013633;28;20178;-59
2022/12/31 00:48:35;;;;;;;18.40;2.10;;;11.60;99.90;;;;;;5013667;28;20186;-58
2022/12/31 00:51:02;;;;;;;23.50;2.37;;;11.60;99.90;;;;;;5013520;28;20178;-58
2022/12/31 00:53:28;;;;;;;15.00;2.53;;;11.60;99.90;;;;;;5013450;28;20193;-58
2022/12/31 00:56:02;;;;;;;19.87;2.40;;;11.60;99.90;;;;;;5014151;28;20177;-58
2022/12/31 00:58:28;;;;;;;15.37;1.70;;;11.50;99.90;;;;;;5033197;28;20174;-58
2022/12/31 01:00:54;;;;;;;10.30;1.53;;;11.50;99.90;;;;;;5033218;28;20185;-59
2022/12/31 01:03:19;;;;;;;16.43;2.30;;;11.50;99.90;;;;;;5033015;28;20715;-58
2022/12/31 01:05:45;;;;;;;20.60;2.30;;;11.30;99.90;;;;;;5032798;28;20515;-58
2022/12/31 01:08:11;;;;;;;9.20;1.30;;;;;;;;;;5032452;28;20227;-58
2022/12/31 01:13:21;;;;;;;20.20;2.13;;;11.40;99.90;;;;;;5026955;28;20225;-58
2022/12/31 01:15:46;;;;;;;18.13;1.57;;;11.30;99.90;;;;;;5015181;28;20186;-58
2022/12/31 01:18:12;;;;;;;11.07;1.70;;;11.20;99.90;;;;;;5028872;28;20190;-58
2022/12/31 01:20:41;;;;;;;16.50;2.23;;;11.10;99.90;;;;;;5032611;28;20182;-58
2022/12/31 01:23:09;;;;;;;6.93;1.00;;;11.10;99.90;;;;;;5032069;28;20178;-58
2022/12/31 01:25:37;;;;;;;14.70;1.90;;;11.20;99.90;;;;;;5032305;28;20221;-58
2022/12/31 01:28:03;;;;;;;11.70;1.60;;;10.90;99.90;;;;;;5032187;28;20178;-58
2022/12/31 01:30:29;;;;;;;14.97;1.43;;;10.90;99.90;;;;;;5025892;28;20190;-58
2022/12/31 01:32:55;;;;;;;16.07;1.70;;;10.90;99.90;;;;;;5021603;28;20178;-57
2022/12/31 01:35:20;;;;;;;14.30;1.93;;;10.80;99.90;;;;;;5031934;28;20182;-58
2022/12/31 01:37:46;;;;;;;7.37;1.30;;;10.80;99.90;;;;;;5028767;28;20190;-58
2022/12/31 01:40:12;;;;;;;11.53;1.50;;;10.80;99.90;;;;;;5017904;28;20181;-58
2022/12/31 01:42:37;;;;;;;7.27;1.27;;;10.80;99.90;;;;;;5032272;28;20191;-59
2022/12/31 01:45:09;;;;;;;12.73;1.63;;;10.80;99.90;;;;;;5032238;28;20205;-58
2022/12/31 01:47:46;;;;;;;11.90;1.40;;;10.80;99.90;;;;;;5032237;28;20205;-58
2022/12/31 01:50:19;;;;;;;8.33;1.50;;;10.70;99.90;;;;;;5032270;28;20185;-58
2022/12/31 01:52:49;;;;;;;7.20;1.17;;;10.80;99.90;;;;;;5032316;28;20174;-58
2022/12/31 01:55:29;;;;;;;14.17;1.67;;;10.70;99.90;;;;;;5031642;28;20201;-58
2022/12/31 01:58:10;;;;;;;12.87;1.13;;;10.80;99.90;;;;;;5032026;28;20178;-58
2022/12/31 02:00:36;;;;;;;8.23;1.00;;;10.80;99.90;;;;;;5028541;28;20194;-58
2022/12/31 02:03:03;;;;;;;6.33;0.73;;;10.80;99.90;;;;;;5028034;28;20225;-58
2022/12/31 02:05:48;;;;;;;7.93;1.17;;;10.70;99.90;;;;;;5031908;28;20214;-58
2022/12/31 02:08:13;;;;;;;2.47;0.73;;;10.70;99.90;;;;;;5031934;28;20170;-57
2022/12/31 02:10:39;;;;;;;5.27;0.70;;;10.70;99.90;;;;;;5031789;28;20178;-58
2022/12/31 02:13:05;;;;;;;5.73;1.07;;;10.20;99.90;;;;;;5031848;28;20170;-57
2022/12/31 02:15:36;;;;;;;5.13;0.60;;;10.70;99.90;;;;;;5031522;28;20679;-57
2022/12/31 02:18:31;;;;;;;4.30;0.50;;;10.70;99.90;;;;;;5031556;28;20236;-57
2022/12/31 02:21:28;;;;;;;2.50;0.50;;;10.70;99.90;;;;;;5012173;28;20241;-57
2022/12/31 02:24:16;;;;;;;2.47;0.60;;;10.60;99.90;;;;;;5020698;28;20181;-57
2022/12/31 02:27:00;;;;;;;1.50;0.30;;;10.70;99.90;;;;;;5031142;28;20182;-58
2022/12/31 02:29:51;;;;;;;1.80;0.37;;;10.70;99.90;;;;;;5031319;28;20276;-58
2022/12/31 02:32:24;;;;;;;3.87;0.50;;;10.60;99.90;;;;;;5011927;28;20182;-57
2022/12/31 02:35:00;;;;;;;1.90;0.37;;;10.70;99.90;;;;;;5026884;28;20200;-57
2022/12/31 02:37:27;;;;;;;3.37;0.37;;;10.70;99.90;;;;;;5030850;28;20663;-57
2022/12/31 02:39:54;;;;;;;2.70;0.40;;;10.60;99.90;;;;;;5030200;28;20190;-57
2022/12/31 02:42:19;;;;;;;1.53;0.40;;;10.60;99.90;;;;;;5030910;28;20652;-56
2022/12/31 02:44:46;;;;;;;3.17;0.30;;;10.60;99.90;;;;;;5031324;28;20241;-55
2022/12/31 02:47:17;;;;;;;2.87;0.40;;;10.60;99.90;;;;;;5031185;28;20667;-56
2022/12/31 02:49:58;;;;;;;1.80;0.40;;;10.60;99.90;;;;;;5031294;28;20177;-56
2022/12/31 02:52:45;;;;;;;2.50;0.40;;;10.60;99.90;;;;;;5031191;28;20185;-56
2022/12/31 02:55:31;;;;;;;1.73;0.20;;;10.50;99.90;;;;;;5031184;28;20170;-56
2022/12/31 02:57:59;;;;;;;3.30;0.30;;;10.60;99.90;;;;;;5031164;28;20215;-56
2022/12/31 03:03:10;;;;;;;1.10;0.20;;;10.50;99.90;;;;;;5029948;28;21032;-55
2022/12/31 03:05:40;;;;;;;1.97;0.20;;;10.50;99.90;;;;;;5028713;28;20221;-55
2022/12/31 03:08:06;;;;;;;2.33;0.40;;;10.50;99.90;;;;;;5029858;28;20300;-55
2022/12/31 03:10:32;;;;;;;1.27;0.30;;;10.40;99.90;;;;;;5030976;28;20261;-55
2022/12/31 03:12:57;;;;;;;2.40;0.13;;;10.30;99.90;;;;;;5030759;28;20261;-55
2022/12/31 03:15:24;;;;;;;0.93;0.30;;;11.90;99.90;;;;;;5017448;28;20186;-57
2022/12/31 03:18:15;;;;;;;0.83;0.20;;;10.50;99.90;;;;;;5013555;28;20224;-55
2022/12/31 03:23:31;;;;;;;4.13;0.30;;;10.60;99.90;;;;;;5030712;28;20184;-55
2022/12/31 03:25:58;;;;;;;1.03;0.20;;;10.70;99.90;;;;;;5030017;28;20343;-55
2022/12/31 03:28:28;;;;;;;2.60;0.40;;;10.80;99.90;;;;;;5030219;28;20249;-55
2022/12/31 03:30:59;;;;;;;1.43;0.73;;;10.90;99.90;;;;;;5029947;28;20201;-55
2022/12/31 03:33:29;;;;;;;1.93;0.20;;;11.00;99.90;;;;;;5030393;28;20162;-56
2022/12/31 03:35:55;;;;;;;4.00;0.50;;;11.10;99.90;;;;;;5022619;28;20530;-56
2022/12/31 03:38:20;;;;;;;1.60;0.20;;;11.10;99.90;;;;;;5028907;28;20220;-56
2022/12/31 03:40:51;;;;;;;1.37;0.30;;;11.20;99.90;;;;;;5029771;28;20197;-56
2022/12/31 03:43:18;;;;;;;1.10;0.10;;;11.30;99.90;;;;;;5030301;28;20197;-56
2022/12/31 03:45:50;;;;;;;0.50;0.20;;;11.30;99.90;;;;;;5022020;28;20245;-56
2022/12/31 03:48:15;;;;;;;1.80;0.10;;;11.40;99.90;;;;;;5016389;28;20223;-57
2022/12/31 03:50:41;;;;;;;1.30;0.30;;;11.50;99.90;;;;;;5030666;28;20569;-57
2022/12/31 03:53:07;;;;;;;1.33;0.27;;;11.50;99.90;;;;;;5018941;28;20189;-57
2022/12/31 03:55:32;;;;;;;2.63;0.33;;;11.60;99.90;;;;;;5025944;28;20193;-56
2022/12/31 03:57:58;;;;;;;0.43;0.20;;;11.70;99.90;;;;;;5030130;28;20303;-57
2022/12/31 04:00:24;;;;;;;5.40;0.43;;;11.70;99.90;;;;;;5028594;28;20747;-57
2022/12/31 04:02:50;;;;;;;5.80;0.40;;;11.80;99.90;;;;;;5029436;28;20181;-56
2022/12/31 04:05:17;;;;;;;2.30;0.57;;;11.80;99.90;;;;;;5025427;28;20222;-55
2022/12/31 04:07:43;;;;;;;2.93;0.30;;;12.00;99.90;;;;;;5030496;28;20170;-56
2022/12/31 04:10:12;;;;;;;4.37;0.80;;;12.00;99.90;;;;;;5030352;28;20636;-55
2022/12/31 04:12:37;;;;;;;2.80;0.53;;;12.00;99.90;;;;;;5030389;28;20166;-55
2022/12/31 04:15:04;;;;;;;2.93;0.57;;;12.20;99.90;;;;;;5030313;28;20273;-55
2022/12/31 04:17:30;;;;;;;6.20;0.63;;;12.20;99.90;;;;;;5030266;28;20711;-55
2022/12/31 04:19:55;;;;;;;5.33;0.80;;;12.20;99.90;;;;;;5032820;28;20209;-55
2022/12/31 04:22:21;;;;;;;3.73;0.60;;;12.30;99.90;;;;;;5034117;28;20174;-55
2022/12/31 04:24:46;;;;;;;7.07;0.93;;;12.30;99.90;;;;;;5033760;28;20644;-55
2022/12/31 04:27:13;;;;;;;7.60;0.87;;;12.40;99.90;;;;;;5033794;28;20220;-55
2022/12/31 04:29:39;;;;;;;3.67;0.57;;;12.40;99.90;;;;;;5031858;28;20228;-55
2022/12/31 04:32:07;;;;;;;8.53;1.20;;;12.50;99.90;;;;;;5033328;28;20178;-55
2022/12/31 04:34:32;;;;;;;9.73;1.03;;;12.50;99.90;;;;;;5033145;28;20220;-55
2022/12/31 04:36:58;;;;;;;6.57;0.97;;;12.50;99.90;;;;;;5027317;28;20423;-55
2022/12/31 04:39:24;;;;;;;7.50;0.80;;;12.40;99.90;;;;;;5017162;28;20661;-55
2022/12/31 04:41:50;;;;;;;6.10;0.80;;;12.50;99.90;;;;;;5019393;28;20659;-56
2022/12/31 04:44:16;;;;;;;7.20;1.30;;;12.50;99.90;;;;;;5033186;28;20213;-55
2022/12/31 04:46:41;;;;;;;7.43;1.07;;;12.50;99.90;;;;;;5032200;28;20186;-56
2022/12/31 04:49:07;;;;;;;9.27;1.30;;;12.50;99.90;;;;;;5032961;28;20635;-55
2022/12/31 04:51:33;;;;;;;7.57;1.50;;;12.60;99.90;;;;;;5033262;28;20697;-56
2022/12/31 04:53:59;;;;;;;8.30;1.27;;;12.60;99.90;;;;;;5032814;28;20600;-56
2022/12/31 04:56:26;;;;;;;4.93;0.97;;;14.10;99.90;;;;;;5032047;28;20166;-55
2022/12/31 04:58:51;;;;;;;12.10;1.50;;;12.60;99.90;;;;;;5032978;28;20220;-57
2022/12/31 05:01:17;;;;;;;5.53;1.23;;;12.70;99.90;;;;;;5032597;28;20213;-57
2022/12/31 05:03:43;;;;;;;8.97;1.37;;;12.70;99.90;;;;;;5032495;28;20224;-57
2022/12/31 05:06:14;;;;;;;7.40;0.90;;;12.80;99.90;;;;;;5031613;28;20221;-58
2022/12/31 05:08:39;;;;;;;11.33;1.40;;;12.80;99.90;;;;;;5013389;28;20174;-57
2022/12/31 05:11:05;;;;;;;10.50;1.43;;;12.90;99.90;;;;;;5025408;28;20678;-57
2022/12/31 05:13:31;;;;;;;8.97;1.53;;;12.90;99.90;;;;;;5030977;28;20170;-58
2022/12/31 05:15:56;;;;;;;13.23;1.30;;;13.10;99.90;;;;;;5030519;28;20749;-58
2022/12/31 05:18:22;;;;;;;17.90;2.13;;;13.00;99.90;;;;;;5031747;28;20174;-58
2022/12/31 05:20:48;;;;;;;20.47;2.00;;;13.10;99.90;;;;;;5031867;28;20225;-58
2022/12/31 05:23:15;;;;;;;7.53;1.60;;;13.10;99.90;;;;;;5025581;28;20178;-58
2022/12/31 05:25:42;;;;;;;14.67;1.63;;;13.40;99.90;;;;;;5012896;28;20218;-59
2022/12/31 05:28:08;;;;;;;10.23;1.57;;;13.20;99.90;;;;;;5017022;28;20166;-58
2022/12/31 05:30:33;;;;;;;10.67;1.47;;;13.20;99.90;;;;;;5021681;28;20537;-58
2022/12/31 05:32:59;;;;;;;12.37;2.37;;;13.20;99.90;;;;;;5032443;28;20537;-59
2022/12/31 05:35:25;;;;;;;10.03;1.37;;;13.20;99.90;;;;;;5032419;28;20174;-58
2022/12/31 05:37:50;;;;;;;10.20;2.00;;;13.30;99.90;;;;;;5020582;28;20197;-58
2022/12/31 05:40:16;;;;;;;13.50;1.90;;;13.40;99.90;;;;;;5027957;28;20189;-59
2022/12/31 05:42:42;;;;;;;14.83;2.20;;;13.40;99.90;;;;;;5032010;28;20590;-58
2022/12/31 05:45:08;;;;;;;15.50;2.43;;;13.40;99.90;;;;;;5030796;28;20295;-58
2022/12/31 05:47:34;;;;;;;14.57;2.10;;;13.40;99.90;;;;;;5031652;28;20236;-58
2022/12/31 05:49:59;;;;;;;15.17;2.00;;;13.40;99.90;;;;;;5025776;28;20173;-58
2022/12/31 05:52:25;;;;;;;18.13;2.60;;;13.30;99.90;;;;;;5031332;28;20241;-58
2022/12/31 05:54:50;;;;;;;15.53;2.53;;;13.30;99.90;;;;;;5031796;28;20579;-56
2022/12/31 05:57:16;;;;;;;23.00;2.63;;;13.30;99.90;;;;;;5032051;28;20201;-56
2022/12/31 05:59:42;;;;;;;23.43;2.50;;;13.30;99.90;;;;;;5032021;28;20284;-56
2022/12/31 06:02:09;;;;;;;19.53;3.20;;;13.30;99.90;;;;;;5031788;28;20719;-56
2022/12/31 06:04:34;;;;;;;16.90;2.90;;;13.30;99.90;;;;;;5030326;28;20225;-57
2022/12/31 06:07:00;;;;;;;14.13;2.87;;;13.20;99.90;;;;;;5028752;28;20375;-55
2022/12/31 06:09:25;;;;;;;18.93;3.10;;;13.20;99.90;;;;;;5030820;28;20654;-56
2022/12/31 06:11:51;;;;;;;19.37;3.20;;;13.20;99.90;;;;;;5030013;28;20166;-56
2022/12/31 06:14:17;;;;;;;16.60;3.00;;;13.20;99.90;;;;;;5031680;28;20895;-56
2022/12/31 06:16:42;;;;;;;21.83;3.37;;;13.30;99.90;;;;;;5031678;28;20269;-56
2022/12/31 06:19:08;;;;;;;24.33;3.63;;;13.30;99.90;;;;;;5031820;28;20713;-55
2022/12/31 06:21:34;;;;;;;19.90;2.63;;;13.30;99.90;;;;;;5031675;28;20177;-56
2022/12/31 06:23:59;;;;;;;22.23;2.97;;;13.30;99.90;;;;;;5031481;28;20631;-56
2022/12/31 06:26:26;;;;;;;25.87;3.87;;;13.40;99.90;;;;;;5031468;28;20245;-56
2022/12/31 06:28:52;;;;;;;23.33;3.27;;;13.40;99.90;;;;;;5031567;28;20177;-55
2022/12/31 06:31:18;;;;;;;19.63;2.90;;;13.40;99.90;;;;;;5031458;28;20170;-58
2022/12/31 06:33:45;;;;;;;20.97;2.33;;;13.40;99.90;;;;;;5031326;28;20185;-59
2022/12/31 06:36:14;;;;;;;18.80;3.23;;;13.50;99.90;;;;;;5031273;28;20185;-59
2022/12/31 06:38:41;;;;;;;9.97;1.40;;;13.50;99.90;;;;;;5030449;28;20181;-58
2022/12/31 06:41:12;;;;;;;12.23;1.37;;;13.50;99.90;;;;;;5030957;28;20239;-57
2022/12/31 06:43:38;;;;;;;15.07;2.97;;;13.50;99.90;;;;;;5031076;28;20269;-57
2022/12/31 06:46:07;;;;;;;16.53;2.53;;;13.50;99.90;;;;;;5030921;28;20205;-57
2022/12/31 06:48:33;;;;;;;11.33;2.17;;;13.50;99.90;;;;;;5030637;28;20180;-58
2022/12/31 06:51:07;;;;;;;13.97;2.47;;;13.40;99.90;;;;;;5030755;28;20257;-57
2022/12/31 06:53:33;;;;;;;19.20;2.80;;;13.30;99.90;;;;;;5030392;28;20189;-57
2022/12/31 06:56:06;;;;;;;18.37;2.90;;;13.20;99.90;;;;;;5030722;28;20190;-57
2022/12/31 06:58:32;;;;;;;17.53;3.00;;;13.20;99.90;;;;;;5030590;28;20682;-57
2022/12/31 07:01:13;;;;;;;15.40;2.70;;;13.10;99.90;;;;;;5015316;28;20257;-57
2022/12/31 07:03:42;;;;;;;20.23;3.30;;;13.10;99.90;;;;;;5024027;28;20229;-58
2022/12/31 07:06:30;;;;;;;18.30;3.00;;;13.10;99.90;;;;;;5030885;28;20205;-58
2022/12/31 07:09:00;;;;;;;21.77;3.60;;;13.10;99.90;;;;;;5030583;28;20182;-58
2022/12/31 07:11:31;;;;;;;16.90;2.90;;;13.10;99.90;;;;;;5030828;28;20174;-55
2022/12/31 07:14:32;;;;;;;25.77;3.57;;;13.20;99.90;;;;;;5030288;28;20184;-55
2022/12/31 07:17:24;;;;;;;15.07;3.03;;;13.10;99.90;;;;;;5029374;28;20188;-56
2022/12/31 07:20:08;;;;;;;18.50;3.33;;;13.10;99.90;;;;;;5025581;28;20655;-55
2022/12/31 07:22:33;;;;;;;23.80;3.80;;;13.10;99.90;;;;;;5030421;28;20319;-55
2022/12/31 07:24:59;;;;;;;21.77;3.80;;;13.10;99.90;;;;;;5030660;28;20241;-55
2022/12/31 07:27:53;;;;;;;24.67;3.60;;;13.10;99.90;;;;;;5030777;28;20268;-55
2022/12/31 07:30:21;;;;;;;24.63;3.47;;;13.20;99.90;;;;;;5030460;28;20180;-55
2022/12/31 07:33:21;;;;;;;20.63;3.13;;;13.20;99.90;;;;;;5030838;28;20178;-55
2022/12/31 07:36:04;;;;;;;26.20;3.57;;;13.30;99.90;;;;;;5029611;28;20285;-55
2022/12/31 07:38:44;;;;;;;20.00;3.33;;;13.20;99.90;;;;;;5030555;28;20292;-55
2022/12/31 07:41:19;;;;;;;23.03;3.30;;;13.30;99.90;;;;;;5030442;28;20193;-58
2022/12/31 07:44:20;;;;;;;18.03;3.30;;;13.30;99.90;;;;;;5030537;28;20169;-57
2022/12/31 07:46:55;;;;;;;23.10;2.93;;;13.20;99.90;;;;;;5010892;28;20311;-57
2022/12/31 07:49:23;;;;;;;21.30;3.50;;;13.40;99.90;;;;;;5030011;28;20189;-57
2022/12/31 07:51:49;;;;;;;17.50;2.67;;;13.30;99.90;;;;;;5030425;28;20647;-57
2022/12/31 07:54:14;;;;;;;21.63;3.67;;;13.30;99.90;;;;;;5032132;28;20170;-58
2022/12/31 07:56:41;;;;;;;19.97;2.60;;;13.30;99.90;;;;;;5025274;28;20212;-57
2022/12/31 07:59:21;;;;;;;17.63;2.80;;;13.30;99.90;;;;;;5034362;28;20178;-57
2022/12/31 08:02:17;;;;;;;28.20;3.43;;;13.30;99.90;;;;;;5034191;28;20177;-57
2022/12/31 08:04:54;;;;;;;18.67;3.13;;;13.30;99.90;;;;;;5033245;28;20244;-57
2022/12/31 08:07:29;;;;;;;16.77;2.73;;;13.30;99.90;;;;;;5034024;28;20231;-57
2022/12/31 08:10:17;;;;;;;15.80;2.33;;;13.30;99.90;;;;;;5032795;28;20177;-57
2022/12/31 08:12:45;;;;;;;14.03;2.33;;;13.20;99.90;;;;;;5028286;28;20182;-58
2022/12/31 08:15:16;;;;;;;17.73;3.10;;;13.20;99.90;;;;;;5032483;28;20189;-55
2022/12/31 08:17:42;;;;;;;13.53;1.67;;;13.20;99.90;;;;;;5033131;28;20653;-56
2022/12/31 08:20:16;;;;;;;15.13;2.23;;;13.20;99.90;;;;;;5033447;28;20189;-55
2022/12/31 08:23:01;;;;;;;19.07;2.77;;;13.20;99.90;;;;;;5033752;28;20178;-55
2022/12/31 08:25:39;;;;;;;15.57;3.20;;;13.30;99.90;;;;;;5033401;28;20209;-56
2022/12/31 08:28:05;;;;;;;18.17;3.40;;;13.30;99.90;;;;;;5033221;28;20208;-57
2022/12/31 08:30:39;;;;;;;17.03;2.97;;;13.30;99.90;;;;;;5033516;28;20214;-56
2022/12/31 08:33:29;;;;;;;20.50;3.20;;;13.30;99.90;;;;;;5033577;28;20166;-56
2022/12/31 08:36:22;;;;;;;15.83;2.33;;;13.40;99.90;;;;;;5028981;28;20174;-56
2022/12/31 08:38:59;;;;;;;19.17;3.40;;;13.40;99.90;;;;;;5033595;28;20224;-55
2022/12/31 08:41:37;;;;;;;14.53;2.67;;;13.40;99.90;;;;;;5033718;28;20173;-56
2022/12/31 08:44:24;;;;;;;22.43;3.00;;;13.40;99.90;;;;;;5013936;28;20206;-56
2022/12/31 08:47:02;;;;;;;19.90;3.00;;;13.50;99.90;;;;;;5013624;28;20179;-56
2022/12/31 08:49:30;;;;;;;22.13;3.60;;;13.50;99.90;;;;;;5013637;28;20704;-55
2022/12/31 08:51:57;;;;;;;20.73;3.13;;;13.50;99.90;;;;;;5013455;28;20177;-55
2022/12/31 08:54:23;;;;;;;19.30;3.43;;;13.50;99.90;;;;;;5006515;28;20206;-56
2022/12/31 08:56:52;;;;;;;24.13;4.03;;;13.50;99.90;;;;;;5025496;28;21484;-56
2022/12/31 08:59:38;;;;;;;19.03;3.50;;;13.50;99.90;;;;;;5032829;28;20182;-56
2022/12/31 09:02:06;;;;;;;27.60;3.37;;;13.50;99.90;;;;;;5032579;28;20178;-56
2022/12/31 09:04:50;;;;;;;20.43;3.57;;;13.50;99.90;;;;;;5022765;28;20254;-55
2022/12/31 09:07:21;;;;;;;27.87;3.60;;;13.50;99.90;;;;;;5022628;28;20253;-56
2022/12/31 09:10:16;;;;;;;21.03;2.63;;;13.50;99.90;;;;;;5033098;28;20174;-56
2022/12/31 09:12:57;;;;;;;31.37;4.23;;;13.50;99.90;;;;;;5033028;28;20629;-56
2022/12/31 09:15:48;;;;;;;25.03;4.27;;;13.40;99.90;;;;;;5031394;28;20215;-56
2022/12/31 09:18:14;;;;;;;18.87;3.20;;;13.40;99.90;;;;;;5032868;28;20182;-56
2022/12/31 09:20:40;;;;;;;28.33;4.77;;;13.30;99.90;;;;;;5032396;28;20242;-55
2022/12/31 09:23:06;;;;;;;26.23;4.13;;;13.30;99.90;;;;;;5032508;28;20590;-55
2022/12/31 09:25:32;;;;;;;28.77;4.57;;;13.20;99.90;;;;;;5015603;28;20297;-56
2022/12/31 09:28:09;;;;;;;32.03;4.57;;;13.20;99.90;;;;;;5012569;28;20819;-56
2022/12/31 09:31:04;;;;;;;32.20;5.00;;;13.10;99.90;;;;;;5024528;28;20208;-55
2022/12/31 09:34:08;;;;;;;31.80;3.87;;;13.10;99.90;;;;;;5012586;28;20208;-56
2022/12/31 09:36:43;;;;;;;18.60;3.40;;;13.00;99.90;;;;;;4978110;28;20187;-56
2022/12/31 09:39:14;;;;;;;21.93;3.27;;;13.00;99.90;;;;;;5032585;28;20177;-56
2022/12/31 09:42:03;;;;;;;24.10;3.73;;;13.00;99.90;;;;;;5032043;28;20174;-56
2022/12/31 09:44:47;;;;;;;23.33;3.30;;;13.00;99.90;;;;;;5009322;28;20237;-57
2022/12/31 09:47:36;;;;;;;25.17;3.13;;;12.90;99.90;;;;;;5011272;28;20668;-57
2022/12/31 09:50:21;;;;;;;19.17;2.60;;;12.90;99.90;;;;;;5016058;28;20201;-58
2022/12/31 09:53:20;;;;;;;10.33;2.17;;;12.80;99.90;;;;;;5032134;28;20243;-57
2022/12/31 09:55:52;;;;;;;14.37;2.43;;;12.80;99.90;;;;;;5031677;28;20260;-56
2022/12/31 09:58:43;;;;;;;11.70;2.00;;;12.50;99.90;;;;;;5032097;28;20182;-56
2022/12/31 10:01:30;;;;;;;13.93;1.87;;;12.60;99.90;;;;;;5031470;28;20288;-56
2022/12/31 10:04:10;;;;;;;14.33;1.60;;;12.40;99.90;;;;;;5031704;28;20240;-56
2022/12/31 10:06:58;;;;;;;11.80;2.30;;;12.50;99.90;;;;;;5031614;28;20185;-56
2022/12/31 10:09:41;;;;;;;14.30;2.37;;;12.40;99.90;;;;;;5032076;28;20257;-56
2022/12/31 10:12:31;;;;;;;19.40;2.57;;;12.50;99.90;;;;;;5032113;28;20174;-56
2022/12/31 10:15:28;;;;;;;11.50;2.20;;;12.40;99.90;;;;;;5031713;28;20264;-56
2022/12/31 10:18:14;;;;;;;15.33;2.30;;;12.50;99.90;;;;;;5031305;28;20197;-56
2022/12/31 10:21:04;;;;;;;18.63;2.23;;;12.50;99.90;;;;;;5031676;28;20208;-56
2022/12/31 10:24:18;;;;;;;18.47;2.80;;;12.40;99.90;;;;;;5031552;28;20161;-56
2022/12/31 10:27:03;;;;;;;25.60;2.63;;;12.40;99.90;;;;;;5012313;28;20197;-57
2022/12/31 10:29:57;;;;;;;21.77;3.00;;;12.40;99.90;;;;;;5031349;28;20185;-57
2022/12/31 10:32:57;;;;;;;21.97;2.80;;;12.40;99.90;;;;;;5031288;28;20204;-56
2022/12/31 10:35:42;;;;;;;21.77;3.03;;;12.40;99.90;;;;;;5031149;28;20223;-56
2022/12/31 10:38:39;;;;;;;25.90;3.30;;;12.40;99.90;;;;;;5011793;28;20177;-56
2022/12/31 10:41:23;;;;;;;28.47;3.00;;;12.50;99.90;;;;;;5010402;28;20210;-57
2022/12/31 10:44:03;;;;;;;20.57;3.00;;;12.40;99.90;;;;;;5007993;28;20664;-57
2022/12/31 10:47:02;;;;;;;20.40;3.33;;;12.50;99.90;;;;;;5024941;28;20213;-56
2022/12/31 10:50:05;;;;;;;25.13;2.97;;;12.50;99.90;;;;;;5031058;28;20205;-57
2022/12/31 10:53:13;;;;;;;20.23;2.93;;;12.50;99.90;;;;;;5030337;28;20181;-56
2022/12/31 10:55:45;;;;;;;18.47;3.23;;;12.50;99.90;;;;;;5030681;28;20239;-57
2022/12/31 10:58:31;;;;;;;15.73;2.53;;;12.50;99.90;;;;;;5025194;28;20185;-57
2022/12/31 11:01:18;;;;;;;14.63;2.50;;;12.50;99.90;;;;;;5030144;28;20221;-57
2022/12/31 11:04:05;;;;;;;15.90;2.87;;;12.60;99.90;;;;;;5030767;28;20308;-56
2022/12/31 11:06:49;;;;;;;16.93;2.77;;;12.60;99.90;;;;;;5030787;28;20217;-56
2022/12/31 11:09:52;;;;;;;14.63;1.90;;;12.60;99.90;;;;;;5030451;28;20700;-56
2022/12/31 11:12:39;;;;;;;15.20;1.70;;;12.60;99.90;;;;;;5030895;28;20582;-56
2022/12/31 11:15:13;;;;;;;16.03;2.07;;;12.70;99.90;;;;;;5030940;28;20265;-56
2022/12/31 11:17:54;;;;;;;9.27;1.67;;;12.70;99.90;;;;;;5029950;28;20181;-57
2022/12/31 11:20:41;;;;;;;14.07;1.83;;;12.70;99.90;;;;;;5030557;28;20185;-56
2022/12/31 11:23:46;;;;;;;12.17;2.00;;;12.80;99.90;;;;;;5046219;28;20261;-56
2022/12/31 11:26:11;;;;;;;17.53;2.40;;;12.70;99.90;;;;;;5029558;28;20219;-56
2022/12/31 11:28:52;;;;;;;13.07;2.10;;;12.80;99.90;;;;;;5030740;28;20534;-56
2022/12/31 11:31:45;;;;;;;13.93;2.03;;;12.80;99.90;;;;;;5028807;28;20649;-57
2022/12/31 11:34:38;;;;;;;19.60;2.43;;;12.90;99.90;;;;;;5031068;28;20659;-57
2022/12/31 11:37:40;;;;;;;14.30;2.30;;;12.90;99.90;;;;;;5026880;28;20193;-57
2022/12/31 11:40:14;;;;;;;11.30;2.17;;;12.80;99.90;;;;;;5035983;28;20653;-57
2022/12/31 11:42:59;;;;;;;13.77;1.73;;;12.80;99.90;;;;;;5034056;28;20258;-57
2022/12/31 11:45:56;;;;;;;15.53;2.33;;;12.80;99.90;;;;;;5021799;28;20206;-57
2022/12/31 11:48:29;;;;;;;13.23;2.23;;;12.90;99.90;;;;;;5014747;28;20171;-57
2022/12/31 11:51:15;;;;;;;14.23;2.03;;;12.80;99.90;;;;;;5014425;28;20167;-57
2022/12/31 11:54:02;;;;;;;8.90;2.10;;;12.90;99.90;;;;;;5014645;28;20186;-58
2022/12/31 11:56:37;;;;;;;15.77;2.23;;;12.80;99.90;;;;;;5016635;28;20308;-57
2022/12/31 11:59:09;;;;;;;17.10;2.07;;;12.80;99.90;;;;;;5034014;28;20636;-56
2022/12/31 12:01:47;;;;;;;15.73;1.90;;;12.80;99.90;;;;;;5034167;28;20273;-57
2022/12/31 12:04:12;;;;;;;6.57;1.13;;;12.80;99.90;;;;;;5031858;28;20223;-57
2022/12/31 12:06:39;;;;;;;4.77;0.90;;;12.80;99.90;;;;;;5030862;28;20182;-57
2022/12/31 12:09:26;;;;;;;6.13;1.43;;;12.70;99.90;;;;;;5034127;28;20200;-57
2022/12/31 12:12:03;;;;;;;6.07;1.00;;;12.50;99.90;;;;;;5033676;28;20224;-56
2022/12/31 12:14:41;;;;;;;5.93;1.20;;;12.50;99.90;;;;;;5032644;28;20180;-57
2022/12/31 12:17:16;;;;;;;10.40;1.00;;;12.40;99.90;;;;;;5033687;28;20542;-58
2022/12/31 12:19:45;;;;;;;5.03;1.10;;;12.30;99.90;;;;;;5033873;28;20244;-57
2022/12/31 12:22:18;;;;;;;6.80;1.03;;;12.20;99.90;;;;;;5033704;28;20177;-57
2022/12/31 12:25:14;;;;;;;3.73;0.90;;;12.10;99.90;;;;;;5033523;28;20205;-57
2022/12/31 12:27:40;;;;;;;8.23;1.20;;;12.10;99.90;;;;;;5033721;28;20656;-57
2022/12/31 12:30:26;;;;;;;9.10;1.10;;;12.10;99.90;;;;;;5033505;28;20168;-58
2022/12/31 12:33:03;;;;;;;10.00;1.40;;;12.10;99.90;;;;;;5018234;28;20558;-58
2022/12/31 12:35:34;;;;;;;10.23;1.50;;;12.10;99.90;;;;;;5033423;28;20185;-58
2022/12/31 12:38:06;;;;;;;7.23;1.10;;;12.10;99.90;;;;;;5033718;28;20208;-58
2022/12/31 12:40:33;;;;;;;8.70;1.40;;;12.10;99.90;;;;;;5032085;28;20189;-57
2022/12/31 12:42:59;;;;;;;11.40;1.87;;;12.10;99.90;;;;;;5033707;28;20166;-57
2022/12/31 12:45:29;;;;;;;9.63;1.50;;;12.10;99.90;;;;;;5033424;28;20672;-58
2022/12/31 12:48:01;;;;;;;8.50;1.60;;;12.20;99.90;;;;;;5033443;28;20172;-58
2022/12/31 12:50:41;;;;;;;16.47;2.00;;;12.20;99.90;;;;;;5033310;28;20571;-58
2022/12/31 12:53:12;;;;;;;18.90;2.23;;;12.20;99.90;;;;;;5033479;28;20521;-58
2022/12/31 12:55:44;;;;;;;10.27;1.40;;;12.30;99.90;;;;;;5031978;28;20186;-59
2022/12/31 12:58:18;;;;;;;13.03;1.93;;;12.30;99.90;;;;;;5033163;28;20538;-58
2022/12/31 13:01:08;;;;;;;7.87;2.70;;;12.30;99.90;;;;;;5033258;28;20177;-58
2022/12/31 13:04:01;;;;;;;11.33;2.27;;;12.30;99.90;;;;;;5032993;28;20712;-58
2022/12/31 13:06:37;;;;;;;13.67;2.60;;;12.40;99.90;;;;;;5032658;28;20210;-58
2022/12/31 13:09:40;;;;;;;11.93;2.47;;;12.40;99.90;;;;;;5032707;28;20655;-58
2022/12/31 13:12:06;;;;;;;11.97;2.53;;;12.40;99.90;;;;;;5037515;28;20186;-58
2022/12/31 13:14:47;;;;;;;17.00;4.33;;;12.30;99.90;;;;;;5032945;28;20261;-57
2022/12/31 13:17:25;;;;;;;11.77;2.80;;;12.40;99.90;;;;;;5030980;28;20173;-58
2022/12/31 13:20:11;;;;;;;11.73;2.37;;;12.40;99.90;;;;;;5032881;28;20190;-56
2022/12/31 13:22:46;;;;;;;8.00;1.90;;;12.50;99.90;;;;;;5013143;28;20175;-57
2022/12/31 13:25:25;;;;;;;9.70;1.47;;;12.50;99.90;;;;;;5012898;28;20264;-57